M I D A S
Marine Information and Data Acquisition System
Tripno 775 of the Zeeleeuw from 2004-03-18 07:12:37 to 2004-03-18 11:41:07
Back to CruiseResearch ActivitiesStationsMapUnderway DataData graphs

EquipmentUnitsComment
TimeDGPSUTC
LatitudeDGPSDM.mWGS84
LongitudeDGPSDM.mWGS84
HeadingGyrodeg 
SOGDGPSknotsSpeed over ground
COGDGPSdegCourse over ground
DepthEcho soundermeters200 kHz
Missing or incorrect values are displayed as -999
Navigation data collected by the RV Zeeleeuw from 2004-03-18 07:12:37 to 2004-03-18 11:41:07
Time Latitude Longitude Heading SOG COG Depth
2004-03-18 07:13:41 51°13.656 2°55.888 120.2 4.4 298 -999
2004-03-18 07:14:41 51°13.685 2°55.783 112.4 4.2 291 -999
2004-03-18 07:15:40 51°13.698 2°55.746 74.2 1.6 59 13.2
2004-03-18 07:16:41 51°13.692 2°55.737 31.9 1.1 222 -999
2004-03-18 07:17:40 51°13.729 2°55.714 335.7 4 331 10.1
2004-03-18 07:18:41 51°13.817 2°55.646 340 6.7 335 10
2004-03-18 07:19:40 51°13.923 2°55.568 341.1 7.5 336 9.9
2004-03-18 07:20:40 51°14.044 2°55.492 342.7 7.8 338 10.7
2004-03-18 07:21:40 51°14.175 2°55.394 333.6 9.7 328 10.7
2004-03-18 07:22:41 51°14.294 2°55.2 312.7 10.3 308 -999
2004-03-18 07:23:39 51°14.383 2°54.964 297.9 11.5 293 10.3
2004-03-18 07:24:40 51°14.376 2°54.65 253.1 12.3 247 10.3
2004-03-18 07:25:40 51°14.268 2°54.355 245 13.2 241 8.9
2004-03-18 07:26:40 51°14.158 2°54.046 242.4 13.5 239 8.9
2004-03-18 07:27:40 51°14.045 2°53.735 243.6 13.6 240 9
2004-03-18 07:28:40 51°13.932 2°53.417 244.5 14 241 9.2
2004-03-18 07:29:41 51°13.813 2°53.081 244 14.5 240 9.4
2004-03-18 07:30:41 51°13.696 2°52.743 244.8 14.6 241 9.7
2004-03-18 07:31:39 51°13.584 2°52.413 245.5 14.7 241 9.9
2004-03-18 07:32:40 51°13.466 2°52.062 245.8 14.7 242 10.2
2004-03-18 07:33:41 51°13.349 2°51.712 246.2 14.7 242 10.2
2004-03-18 07:34:41 51°13.233 2°51.369 246.3 14.7 242 10.2
2004-03-18 07:35:40 51°13.118 2°51.032 246.8 14.7 242 10.5
2004-03-18 07:36:41 51°13.002 2°50.684 246.8 14.6 242 10.5
2004-03-18 07:37:41 51°12.887 2°50.344 245.9 14.6 242 10.6
2004-03-18 07:38:40 51°12.774 2°50.008 246.8 14.6 243 10.8
2004-03-18 07:39:39 51°12.662 2°49.673 246.5 14.6 243 10.9
2004-03-18 07:40:40 51°12.547 2°49.325 246.5 14.6 242 11.1
2004-03-18 07:41:40 51°12.433 2°48.982 246.5 14.6 242 11.2
2004-03-18 07:42:40 51°12.32 2°48.64 246.6 14.6 243 11.4
2004-03-18 07:43:41 51°12.211 2°48.288 247.5 14.5 244 11.6
2004-03-18 07:44:40 51°12.109 2°47.948 248.7 14.5 245 11.6
2004-03-18 07:45:40 51°12.005 2°47.601 248.8 14.5 245 11.8
2004-03-18 07:46:40 51°11.9 2°47.255 247.9 14.5 244 11.8
2004-03-18 07:47:40 51°11.795 2°46.908 248.1 14.5 245 11.7
2004-03-18 07:48:40 51°11.702 2°46.553 251.5 14.5 248 12.1
2004-03-18 07:49:40 51°11.617 2°46.198 252.5 14.4 248 12.2
2004-03-18 07:50:41 51°11.521 2°45.837 252.8 14.4 249 12.2
2004-03-18 07:51:40 51°11.434 2°45.486 253 14.5 249 12.2
2004-03-18 07:52:40 51°11.346 2°45.131 252.5 14.5 248 12.2
2004-03-18 07:53:40 51°11.255 2°44.776 252.1 14.4 248 12.2
2004-03-18 07:54:40 51°11.166 2°44.42 251.9 14.4 248 12.1
2004-03-18 07:55:40 51°11.079 2°44.064 252.5 14.4 249 12.1
2004-03-18 07:56:40 51°10.991 2°43.71 254.9 14.4 251 12
2004-03-18 07:57:40 51°10.912 2°43.35 256.1 14.4 251 12.1
2004-03-18 07:58:40 51°10.836 2°42.99 255.5 14.3 252 12.1
2004-03-18 07:59:40 51°10.758 2°42.631 255.4 14.3 251 12.2
2004-03-18 08:00:40 51°10.68 2°42.273 255.7 14.3 251 12.3
2004-03-18 08:01:40 51°10.603 2°41.917 255.3 14.2 251 12.4
2004-03-18 08:02:40 51°10.528 2°41.56 255.6 14.2 252 12.5
2004-03-18 08:03:40 51°10.451 2°41.204 255.3 14.1 251 12.5
2004-03-18 08:04:39 51°10.377 2°40.857 255.8 14.1 251 12.7
2004-03-18 08:05:41 51°10.299 2°40.494 255.5 13.9 252 12.8
2004-03-18 08:06:40 51°10.226 2°40.152 255.1 13.9 251 13
2004-03-18 08:07:41 51°10.151 2°39.797 255.6 13.9 252 13.3
2004-03-18 08:08:41 51°10.078 2°39.448 255.2 13.9 251 13.6
2004-03-18 08:09:40 51°10.007 2°39.104 254.8 13.9 251 14.1
2004-03-18 08:10:40 51°9.933 2°38.752 255.3 14 252 14.6
2004-03-18 08:11:40 51°9.859 2°38.4 255.5 14 252 15.1
2004-03-18 08:12:41 51°9.786 2°38.043 255.4 14 251 15.8
2004-03-18 08:13:40 51°9.714 2°37.699 255.1 13.9 251 16.3
2004-03-18 08:14:40 51°9.641 2°37.349 255.1 13.9 251 16.7
2004-03-18 08:15:40 51°9.557 2°37.007 251.8 13.9 248 16.9
2004-03-18 08:16:39 51°9.472 2°36.671 251.9 13.9 248 16.7
2004-03-18 08:17:40 51°9.386 2°36.324 251.9 13.8 249 16.8
2004-03-18 08:18:41 51°9.303 2°35.976 252.7 13.8 250 17.3
2004-03-18 08:19:39 51°9.226 2°35.647 252.5 13.7 249 17.7
2004-03-18 08:20:41 51°9.143 2°35.296 252.1 13.7 249 17.8
2004-03-18 08:21:41 51°9.061 2°34.956 253 13.8 250 18
2004-03-18 08:22:39 51°8.985 2°34.629 252.5 13.1 249 17.1
2004-03-18 08:23:41 51°8.932 2°34.401 259.7 7 258 17.2
2004-03-18 08:24:40 51°8.939 2°34.26 288.2 3.9 282 17.2
2004-03-18 08:25:40 51°8.943 2°34.237 260.1 0.2 353 17
2004-03-18 08:26:40 51°8.946 2°34.237 244.6 0.2 358 17
2004-03-18 08:27:39 51°8.947 2°34.236 235 0.1 358 17.2
2004-03-18 08:28:39 51°8.949 2°34.236 225.6 0.1 21 17.1
2004-03-18 08:29:40 51°8.95 2°34.237 218.5 0.1 39 17.1
2004-03-18 08:30:41 51°8.951 2°34.237 213.8   358 17.3
2004-03-18 08:31:41 51°8.951 2°34.237 210.5   349 17.5
2004-03-18 08:32:40 51°8.951 2°34.238 207.3   41 17.6
2004-03-18 08:33:40 51°8.951 2°34.239 205 0.1 77 17.5
2004-03-18 08:34:41 51°8.952 2°34.241 202.4 0.1 78 17.6
2004-03-18 08:35:40 51°8.953 2°34.244 200.5 0.1 63 17.4
2004-03-18 08:36:41 51°8.953 2°34.244 199.6 0.1 61 17.2
2004-03-18 08:37:40 51°8.955 2°34.247 199.4 0.1 40 17.5
2004-03-18 08:38:39 51°8.956 2°34.249 198.8 0.1 147 17.7
2004-03-18 08:39:39 51°8.94 2°34.241 209.9 1.9 203 17.4
2004-03-18 08:40:39 51°8.906 2°34.197 232.7 3.2 230 18.1
2004-03-18 08:41:41 51°8.883 2°34.106 262.1 3.9 263 18.1
2004-03-18 08:42:39 51°8.884 2°34.001 269.9 4.2 270 17.9
2004-03-18 08:43:41 51°8.88 2°33.882 267 4.4 267 18.1
2004-03-18 08:44:39 51°8.88 2°33.768 272.6 4.5 272 17.8
2004-03-18 08:45:41 51°8.887 2°33.644 274.6 4.5 276 19
2004-03-18 08:46:41 51°8.895 2°33.533 274.4 3.8 277 19.6
2004-03-18 08:47:40 51°8.9 2°33.446 270.5 3.1 274 20
2004-03-18 08:48:40 51°8.906 2°33.371 276.5 2.7 282 20
2004-03-18 08:49:40 51°8.919 2°33.305 283.7 2.6 291 20.2
2004-03-18 08:50:40 51°8.936 2°33.244 284.9 2.5 294 20.3
2004-03-18 08:51:40 51°8.951 2°33.185 281 2.4 290 20.3
2004-03-18 08:52:41 51°8.963 2°33.13 275 2 287 20.4
2004-03-18 08:53:41 51°8.97 2°33.085 265.8 1.5 280 20.5
2004-03-18 08:54:41 51°8.972 2°33.053 255.6 1 273 20.5
2004-03-18 08:55:40 51°8.972 2°33.031 248 0.7 269 20.5
2004-03-18 08:56:41 51°8.972 2°33.017 242.7 0.4 267 20.6
2004-03-18 08:57:40 51°8.973 2°33.008 238.7 0.3 273 20.6
2004-03-18 08:58:40 51°8.973 2°33.003 235.8 0.2 301 20.6
2004-03-18 08:59:40 51°8.975 2°33.001 234.3 0.1 352 20.6
2004-03-18 09:00:41 51°8.978 2°33.001 232.9 0.2 15 20.6
2004-03-18 09:01:41 51°8.981 2°33.004 232.5 0.3 20 20.6
2004-03-18 09:02:40 51°8.985 2°33.007 232.2 0.3 30 20.7
2004-03-18 09:03:41 51°8.991 2°33.013 231.5 0.4 35 20.6
2004-03-18 09:04:41 51°8.996 2°33.019 228.6 0.5 41 20.6
2004-03-18 09:05:39 51°9.002 2°33.028 226.1 0.5 47 20.6
2004-03-18 09:06:40 51°9.005 2°33.036 217.3 0.3 75 20.5
2004-03-18 09:07:41 51°9.004 2°33.045 207 0.4 110 20.5
2004-03-18 09:08:41 51°9 2°33.057 197.3 0.6 118 20.5
2004-03-18 09:09:41 51°8.994 2°33.073 192.7 0.7 121 20.7
2004-03-18 09:10:41 51°8.987 2°33.09 191.8 0.8 127 20.7
2004-03-18 09:11:40 51°8.979 2°33.105 197.9 0.7 136 20.8
2004-03-18 09:12:41 51°8.97 2°33.114 215.5 0.5 156 20.8
2004-03-18 09:13:40 51°8.965 2°33.114 234.1 0.3 229 20.8
2004-03-18 09:14:41 51°8.962 2°33.107 237 0.3 241 20.9
2004-03-18 09:15:41 51°8.958 2°33.1 231.1 0.4 219 20.9
2004-03-18 09:16:40 51°8.953 2°33.096 227.3 0.3 195 20.9
2004-03-18 09:17:39 51°8.95 2°33.096 225.8 0.2 152 20.9
2004-03-18 09:18:40 51°8.949 2°33.099 225.4 0.2 97 20.9
2004-03-18 09:19:41 51°8.949 2°33.107 224.4 0.3 76 20.9
2004-03-18 09:20:40 51°8.952 2°33.116 224.3 0.4 65 20.9
2004-03-18 09:21:41 51°8.956 2°33.127 224.9 0.5 55 21
2004-03-18 09:22:40 51°8.961 2°33.14 225 0.6 56 20.9
2004-03-18 09:23:41 51°8.968 2°33.154 226.4 0.6 52 20.9
2004-03-18 09:24:41 51°8.975 2°33.169 227.4 0.7 50 20.8
2004-03-18 09:25:40 51°8.973 2°33.162 240.7 2.4 245 20.9
2004-03-18 09:26:41 51°8.987 2°33.036 289.4 6.4 297 20.9
2004-03-18 09:27:40 51°9.07 2°32.897 309.1 7.7 313 19.5
2004-03-18 09:28:41 51°9.134 2°32.761 292.9 4.6 299 15.3
2004-03-18 09:29:40 51°9.147 2°32.751 257.6 0.9 42 14.7
2004-03-18 09:30:41 51°9.154 2°32.759 244.5 0.5 36 14.7
2004-03-18 09:31:40 51°9.16 2°32.768 238.7 0.5 52 14.7
2004-03-18 09:32:41 51°9.165 2°32.777 238.1 0.5 59 14.6
2004-03-18 09:33:41 51°9.17 2°32.787 238.7 0.5 56 14.6
2004-03-18 09:34:41 51°9.175 2°32.796 240.1 0.5 51 14.8
2004-03-18 09:35:41 51°9.18 2°32.806 240.2 0.5 52 14.8
2004-03-18 09:36:40 51°9.186 2°32.817 240.2 0.5 51 14.6
2004-03-18 09:37:41 51°9.19 2°32.828 241.1 0.1 18 14.5
2004-03-18 09:38:41 51°9.198 2°32.764 288.9 5 294 13.5
2004-03-18 09:39:41 51°9.297 2°32.695 358.2 7.7 359 11.9
2004-03-18 09:40:41 51°9.419 2°32.839 48.7 11.2 46 11.9
2004-03-18 09:41:41 51°9.565 2°33.07 48.2 12.8 46 11.8
2004-03-18 09:42:40 51°9.709 2°33.316 49.8 12.9 47 12
2004-03-18 09:43:41 51°9.857 2°33.573 49.4 12.9 47 12.3
2004-03-18 09:44:41 51°10.002 2°33.825 49.9 13 47 12.2
2004-03-18 09:45:41 51°10.148 2°34.077 49.8 13 47 11.9
2004-03-18 09:46:39 51°10.288 2°34.321 50 12.9 47 11.6
2004-03-18 09:47:41 51°10.439 2°34.582 50.5 13 48 11.5
2004-03-18 09:48:40 51°10.591 2°34.845 50.3 13 48 11.6
2004-03-18 09:49:40 51°10.728 2°35.089 52 13.1 49 11.8
2004-03-18 09:50:41 51°10.871 2°35.357 52.3 13.1 49 12.1
2004-03-18 09:51:41 51°11.009 2°35.616 51.9 12 49 12.2
2004-03-18 09:52:41 51°11.118 2°35.818 53 9 51 12.7
2004-03-18 09:53:40 51°11.191 2°35.965 52.9 6.1 53 13
2004-03-18 09:54:41 51°11.233 2°36.089 70.5 4.7 66 13.1
2004-03-18 09:55:41 51°11.256 2°36.193 79 3.9 71 13.6
2004-03-18 09:56:40 51°11.269 2°36.244 86.3 0.7 33 13.7
2004-03-18 09:57:41 51°11.278 2°36.261 80.5 0.9 56 13.9
2004-03-18 09:58:41 51°11.287 2°36.282 78.6 1 56 13.9
2004-03-18 09:59:40 51°11.296 2°36.306 71.7 1.1 64 13.7
2004-03-18 10:00:41 51°11.307 2°36.334 64.5 1.3 58 14
2004-03-18 10:01:41 51°11.319 2°36.363 59.9 1.4 60 14.2
2004-03-18 10:02:41 51°11.33 2°36.395 57.8 1.5 61 14.1
2004-03-18 10:03:41 51°11.367 2°36.442 11.6 3.9 20 14.2
2004-03-18 10:04:40 51°11.417 2°36.408 291.2 2.9 298 14
2004-03-18 10:05:41 51°11.396 2°36.345 227.7 3.4 215 13.5
2004-03-18 10:06:41 51°11.335 2°36.29 226.3 4.5 216 13.7
2004-03-18 10:07:41 51°11.274 2°36.226 215.6 3.9 202 13.7
2004-03-18 10:08:39 51°11.24 2°36.213 226.6 0.8 183 13.8
2004-03-18 10:09:41 51°11.234 2°36.211 245.2 0.2 198 13.7
2004-03-18 10:10:41 51°11.232 2°36.211 243.8 0.1 130 13.9
2004-03-18 10:11:41 51°11.231 2°36.214 238 0.2 99 13.8
2004-03-18 10:12:41 51°11.23 2°36.222 232.1 0.4 103 14
2004-03-18 10:13:41 51°11.229 2°36.233 226.4 0.5 103 14
2004-03-18 10:14:41 51°11.228 2°36.247 221.7 0.6 98 13.9
2004-03-18 10:15:40 51°11.228 2°36.263 217.7 0.6 89 14.2
2004-03-18 10:16:41 51°11.227 2°36.281 214.1 0.7 88 14.2
2004-03-18 10:17:41 51°11.227 2°36.299 209.8 0.7 89 14.3
2004-03-18 10:18:40 51°11.228 2°36.319 206 0.8 89 14.3
2004-03-18 10:19:41 51°11.229 2°36.34 203.2 0.8 87 14.3
2004-03-18 10:20:41 51°11.231 2°36.361 201.1 0.8 84 14.5
2004-03-18 10:21:41 51°11.232 2°36.383 199.4 0.8 82 14.5
2004-03-18 10:22:41 51°11.234 2°36.406 196.5 0.8 83 14.4
2004-03-18 10:23:41 51°11.204 2°36.439 166.7 5.9 152 14.8
2004-03-18 10:24:41 51°11.044 2°36.494 183.1 12.5 176 15
2004-03-18 10:25:40 51°10.829 2°36.528 180.1 13.3 173 14.6
2004-03-18 10:26:41 51°10.605 2°36.576 179.8 13.3 172 12.6
2004-03-18 10:27:40 51°10.391 2°36.626 178.6 13.3 170 13.6
2004-03-18 10:28:40 51°10.197 2°36.824 145.6 14.4 135 20.7
2004-03-18 10:29:41 51°10.064 2°37.156 119.7 15.1 110 20.8
2004-03-18 10:30:41 51°10.023 2°37.554 102.4 15.4 95 20
2004-03-18 10:31:40 51°10.006 2°37.954 95.4 15.5 88 19.4
2004-03-18 10:32:41 51°10.042 2°38.369 87.5 15.5 81 18.8
2004-03-18 10:33:39 51°10.09 2°38.762 82.4 15.7 76 17.9
2004-03-18 10:34:41 51°10.152 2°39.183 83.2 15.8 77 17.2
2004-03-18 10:35:41 51°10.223 2°39.586 77 15.8 72 16.4
2004-03-18 10:36:41 51°10.302 2°39.983 79.6 15.7 76 15.8
2004-03-18 10:37:41 51°10.336 2°40.393 87.8 15.6 81 15.2
2004-03-18 10:38:41 51°10.372 2°40.8 87.5 15.4 82 14.8
2004-03-18 10:39:41 51°10.408 2°41.204 87.7 15.4 82 14.3
2004-03-18 10:40:41 51°10.444 2°41.606 87.5 15.3 82 14
2004-03-18 10:41:39 51°10.479 2°41.994 87.6 15.2 82 13.5
2004-03-18 10:42:41 51°10.544 2°42.396 70.6 15.3 65 13.1
2004-03-18 10:43:41 51°10.672 2°42.745 62 15.3 58 13.6
2004-03-18 10:44:40 51°10.795 2°43.092 65.3 15.3 61 14
2004-03-18 10:45:41 51°10.929 2°43.441 66.2 15.2 62 14.3
2004-03-18 10:46:41 51°11.04 2°43.803 69.1 15.2 64 14.6
2004-03-18 10:47:40 51°11.147 2°44.161 69.2 15.3 65 14.7
2004-03-18 10:48:41 51°11.262 2°44.532 67 15.4 62 15
2004-03-18 10:49:40 51°11.379 2°44.889 67.3 15.5 63 15.1
2004-03-18 10:50:41 51°11.501 2°45.259 67.4 15.5 62 15.3
2004-03-18 10:51:40 51°11.61 2°45.624 69.6 15.5 65 15.4
2004-03-18 10:52:41 51°11.724 2°46.003 69 15.6 64 15.4
2004-03-18 10:53:41 51°11.836 2°46.377 69.5 15.7 65 15.5
2004-03-18 10:54:40 51°11.948 2°46.748 68.5 15.8 63 15.5
2004-03-18 10:55:41 51°12.063 2°47.129 68.9 15.6 64 15.4
2004-03-18 10:56:41 51°12.177 2°47.503 68.1 15.7 63 15.4
2004-03-18 10:57:40 51°12.296 2°47.866 67 15.7 62 15.2
2004-03-18 10:58:41 51°12.418 2°48.24 67.7 15.6 63 15
2004-03-18 10:59:41 51°12.539 2°48.604 67.3 15.5 62 14.9
2004-03-18 11:00:40 51°12.657 2°48.963 67.7 15.5 63 14.7
2004-03-18 11:01:41 51°12.78 2°49.335 66.7 15.5 62 14.6
2004-03-18 11:02:41 51°12.902 2°49.702 67.7 15.6 62 14.4
2004-03-18 11:03:41 51°13.022 2°50.07 67.2 15.7 62 14.2
2004-03-18 11:04:41 51°13.142 2°50.437 67.5 15.6 63 14
2004-03-18 11:05:41 51°13.246 2°50.697 54.6 10.1 52 14.1
2004-03-18 11:06:40 51°13.338 2°50.876 58 8.1 54 14.2
2004-03-18 11:07:41 51°13.391 2°51.036 78 5.8 69 14.1
2004-03-18 11:08:41 51°13.413 2°51.12 102.3 1.4 23 14.1
2004-03-18 11:09:41 51°13.437 2°51.104 101 1.4 339 14.2
2004-03-18 11:10:41 51°13.457 2°51.099 93.9 1.1 358 14.2
2004-03-18 11:11:41 51°13.474 2°51.103 85.4 1 18 14.1
2004-03-18 11:12:41 51°13.489 2°51.116 78.3 1 33 14.1
2004-03-18 11:13:39 51°13.503 2°51.134 72.6 1.2 41 14.1
2004-03-18 11:14:41 51°13.52 2°51.17 78.4 2.6 61 14.1
2004-03-18 11:15:41 51°13.519 2°51.263 139.4 4.2 111 14.1
2004-03-18 11:16:40 51°13.47 2°51.292 221.3 3 208 14
2004-03-18 11:17:41 51°13.436 2°51.205 249.8 4 248 14
2004-03-18 11:18:41 51°13.411 2°51.141 231.7 1.8 222 14
2004-03-18 11:19:41 51°13.401 2°51.151 202.6 0.9 121 14.1
2004-03-18 11:20:40 51°13.396 2°51.176 198.8 1 105 14
2004-03-18 11:21:41 51°13.392 2°51.203 203.5 1 94 14
2004-03-18 11:22:41 51°13.393 2°51.229 210.6 1 85 14
2004-03-18 11:23:41 51°13.397 2°51.254 218.9 0.9 73 13.9
2004-03-18 11:24:41 51°13.403 2°51.276 228.2 0.9 60 13.9
2004-03-18 11:25:41 51°13.412 2°51.298 238.1 1 49 13.9
2004-03-18 11:26:41 51°13.424 2°51.318 248.8 1 47 13.9
2004-03-18 11:27:41 51°13.437 2°51.337 257.9 1.1 38 13.9
2004-03-18 11:28:41 51°13.45 2°51.354 255.6 0.7 31 13.9
2004-03-18 11:29:41 51°13.427 2°51.36 185.1 3 152 13.8
2004-03-18 11:30:41 51°13.407 2°51.474 97.7 6 81 13.6
2004-03-18 11:31:41 51°13.508 2°51.7 53.7 14.1 49 13.3
2004-03-18 11:32:41 51°13.655 2°52.024 63.8 15.2 59 13.4
2004-03-18 11:33:41 51°13.779 2°52.373 66 15.1 60 13.2
2004-03-18 11:34:41 51°13.924 2°52.702 58.7 15.2 53 13.1
2004-03-18 11:35:41 51°14.074 2°53.027 60.9 15.3 55 12.9
2004-03-18 11:36:41 51°14.214 2°53.367 60.2 15.3 55 12.5
2004-03-18 11:37:39 51°14.335 2°53.708 73.3 15.2 68 12.4
2004-03-18 11:38:41 51°14.394 2°54.112 90.2 15.2 83 12.1
2004-03-18 11:39:41 51°14.409 2°54.51 94.9 15 87 12.8
2004-03-18 11:40:40 51°14.395 2°54.869 107.6 13.2 100 13.1